Startpagina
METAR-TAF:

METAR-TAF

Vliegvelden :

Johnson County Airport

Buffalo, Wyoming, Verenigde Staten

breedte: 44-22-53N, lengte: 106-43-08W, hoogte: 1514 m

Actueel weer

Dit bericht is 1 uur en het 7 minuten geleden gemaakt, om 15:53 UTC
Wind 25 kt uit het noordnoordwesten met uitschieters tot 38 kt
Temperatuur 10°C
Vochtigheid 37%
Druk 1022 hPa
Zicht: 16.1 km
Onbewolkt

METAR: KBYG 181553Z AUTO 34025G38KT 10SM CLR 10/M04 A3018 RMK AO2 PK WND 32040/1524 SLP214 T01001039

Tijdstip: 11:00 (17:00 UTC)


TAF: ontbreekt

Waarnemingen en weersverwachtingen van meer dan 4000 vliegvelden (METAR en TAF).

De beschikbare stations zijn de gele en rode punten op de kaart.

Ga met uw muis naar het station om de naam te zien.

Klik dan om waarnemingen en weersverwachtingen te zien.

kaart wijzigen: klik op de groene knoppen met een zwart kruis om in te zoomen, op de groene knop met een streepje om uit te zoomen of op de groene pijlen voor aangrenzende kaarten.


METAR-TAF: